createdAt,value
2023-07-27T00:07:54.953Z,16.40
2023-07-27T00:17:56.972Z,16.40
2023-07-27T00:28:00.387Z,16.40
2023-07-27T00:38:02.388Z,16.40
2023-07-27T00:48:06.295Z,16.30
2023-07-27T00:58:08.428Z,16.30
2023-07-27T01:08:11.861Z,16.20
2023-07-27T01:18:23.551Z,16.20
2023-07-27T01:28:48.293Z,16.20
2023-07-27T01:38:54.594Z,16.30
2023-07-27T01:48:57.858Z,16.30
2023-07-27T01:59:02.396Z,16.30
2023-07-27T02:09:04.589Z,16.30
2023-07-27T02:19:09.577Z,16.30
2023-07-27T02:29:11.563Z,16.30
2023-07-27T02:39:14.994Z,16.30
2023-07-27T02:49:16.971Z,16.40
2023-07-27T02:59:20.332Z,16.40
2023-07-27T03:09:22.286Z,16.40
2023-07-27T03:19:25.617Z,16.40
2023-07-27T03:29:27.597Z,16.50
2023-07-27T03:39:30.940Z,16.50
2023-07-27T03:49:32.933Z,16.60
2023-07-27T03:59:36.280Z,16.60
2023-07-27T04:09:38.212Z,16.70
2023-07-27T04:19:41.560Z,16.70
2023-07-27T04:29:43.580Z,16.80
2023-07-27T04:39:46.927Z,16.80
2023-07-27T04:49:48.942Z,16.80
2023-07-27T04:59:52.350Z,16.90
2023-07-27T05:09:54.416Z,16.90
2023-07-27T05:19:57.748Z,17.00
2023-07-27T05:29:59.749Z,17.10
2023-07-27T05:40:03.272Z,17.20
2023-07-27T05:50:06.916Z,17.30
2023-07-27T06:00:11.616Z,17.30
2023-07-27T06:10:13.587Z,17.40
2023-07-27T06:20:17.138Z,17.40
2023-07-27T06:30:19.122Z,17.40
2023-07-27T06:40:22.559Z,17.40
2023-07-27T06:50:24.585Z,17.60
2023-07-27T07:00:28.092Z,17.70
2023-07-27T07:10:30.134Z,18.00
2023-07-27T07:20:33.490Z,18.10
2023-07-27T07:30:38.959Z,18.20
2023-07-27T07:40:42.285Z,18.40
2023-07-27T07:50:44.354Z,18.50
2023-07-27T08:00:47.704Z,18.60
2023-07-27T08:10:49.840Z,18.80
2023-07-27T08:20:59.879Z,19.30
2023-07-27T08:31:02.739Z,20.30
2023-07-27T08:41:06.136Z,22.10
2023-07-27T08:51:08.195Z,22.50
2023-07-27T09:01:11.585Z,22.90
2023-07-27T09:11:13.685Z,22.40
2023-07-27T09:21:17.167Z,21.60
2023-07-27T09:31:19.218Z,21.40
2023-07-27T09:41:24.234Z,21.40
2023-07-27T09:51:27.041Z,20.70
2023-07-27T10:01:30.611Z,21.10
2023-07-27T10:11:53.959Z,20.90
2023-07-27T10:22:06.905Z,21.10
2023-07-27T10:32:10.134Z,21.50
2023-07-27T10:42:15.763Z,21.90
2023-07-27T10:52:18.868Z,22.10
2023-07-27T11:02:23.535Z,22.70
2023-07-27T11:12:26.016Z,23.10
2023-07-27T11:22:29.545Z,23.40
2023-07-27T11:32:31.667Z,23.40
2023-07-27T11:42:37.482Z,23.80
2023-07-27T11:52:39.968Z,23.50
2023-07-27T12:02:47.684Z,22.70
2023-07-27T12:12:51.747Z,22.40
2023-07-27T12:23:30.099Z,22.90
2023-07-27T12:33:17.549Z,23.20
2023-07-27T12:43:20.968Z,23.70
2023-07-27T12:53:22.995Z,23.00
2023-07-27T13:03:26.482Z,22.20
2023-07-27T13:13:28.516Z,22.00
2023-07-27T13:23:31.905Z,22.40
2023-07-27T13:33:33.925Z,22.20
2023-07-27T13:43:37.317Z,22.10
2023-07-27T13:53:39.312Z,22.40
2023-07-27T14:03:42.788Z,23.00
2023-07-27T14:13:44.930Z,23.10
2023-07-27T14:23:48.290Z,23.50
2023-07-27T14:33:50.308Z,23.70
2023-07-27T14:43:53.800Z,23.40
2023-07-27T14:53:55.796Z,23.90
2023-07-27T15:03:59.840Z,24.20
2023-07-27T15:14:02.032Z,23.50
2023-07-27T15:24:05.878Z,23.80
2023-07-27T15:34:07.900Z,24.10
2023-07-27T15:44:11.371Z,23.70
2023-07-27T15:54:13.428Z,22.90
2023-07-27T16:04:16.798Z,23.40
2023-07-27T16:14:18.884Z,24.20
2023-07-27T16:24:22.264Z,24.00
2023-07-27T16:34:24.328Z,23.70
2023-07-27T16:44:27.818Z,23.10
2023-07-27T16:54:29.776Z,23.00
2023-07-27T17:04:33.676Z,22.70
2023-07-27T17:14:37.337Z,22.40
2023-07-27T17:24:40.681Z,22.20
2023-07-27T17:34:42.737Z,22.20
2023-07-27T17:44:46.105Z,21.90
2023-07-27T17:54:48.214Z,22.00
2023-07-27T18:04:53.177Z,21.90
2023-07-27T18:14:55.128Z,21.70
2023-07-27T18:24:59.855Z,21.50
2023-07-27T18:35:02.020Z,21.50
2023-07-27T18:45:10.742Z,21.20
2023-07-27T18:55:47.626Z,21.00
2023-07-27T19:05:51.219Z,20.90
2023-07-27T19:15:53.296Z,20.80
2023-07-27T19:25:56.927Z,20.70
2023-07-27T19:35:59.011Z,20.50
2023-07-27T19:46:02.357Z,20.30
2023-07-27T19:56:04.985Z,20.20
2023-07-27T20:06:08.893Z,20.10
2023-07-27T20:16:10.849Z,20.00
2023-07-27T20:26:14.211Z,19.90
2023-07-27T20:36:16.187Z,19.90
2023-07-27T20:46:19.612Z,19.80
2023-07-27T20:56:21.666Z,19.80
2023-07-27T21:06:25.196Z,19.70
2023-07-27T21:16:39.114Z,19.70
2023-07-27T21:26:42.751Z,19.70
2023-07-27T21:36:44.761Z,19.70
2023-07-27T21:46:48.097Z,19.50
2023-07-27T21:56:50.129Z,19.30
2023-07-27T22:06:53.457Z,19.10
2023-07-27T22:16:55.439Z,19.00
2023-07-27T22:26:59.116Z,19.00
2023-07-27T22:37:01.084Z,19.00
2023-07-27T22:47:04.840Z,19.00
2023-07-27T22:57:07.891Z,19.10
2023-07-27T23:07:11.300Z,18.90
2023-07-27T23:17:13.353Z,18.80
2023-07-27T23:27:16.714Z,18.70
2023-07-27T23:37:18.670Z,18.70
2023-07-27T23:47:22.052Z,18.60
2023-07-27T23:57:24.247Z,18.60
